Time;durP1;ratioP1;P1;durP2;ratioP2;P2;SDS_P1;SDS_P2;PMS_P1;PMS_P2;Temp;Humidity;BMP_temperature;BMP_pressure;BME280_temperature;BME280_humidity;BME280_pressure;Samples;Min_cycle;Max_cycle;Signal;HPM_P1;HPM_P2
2022/04/10 00:01:32;;;;;;;15.20;7.50;;;;;;;8.60;100.00;98716.55;1793519;79;21031;-71
2022/04/10 00:04:00;;;;;;;16.57;7.90;;;;;;;8.58;100.00;98711.87;1768440;79;21064;-71
2022/04/10 00:06:29;;;;;;;19.27;8.57;;;;;;;8.57;100.00;98702.96;1751424;80;21048;-71
2022/04/10 00:08:57;;;;;;;14.17;7.30;;;;;;;8.56;100.00;98706.67;1747550;81;21088;-70
2022/04/10 00:11:26;;;;;;;17.07;7.73;;;;;;;8.53;100.00;98697.13;1753876;81;21064;-72
2022/04/10 00:13:54;;;;;;;17.87;8.30;;;;;;;8.51;100.00;98701.84;1754048;81;22098;-71
2022/04/10 00:16:22;;;;;;;17.40;7.40;;;;;;;8.48;100.00;98684.73;1743325;80;21079;-71
2022/04/10 00:18:50;;;;;;;13.97;7.17;;;;;;;8.46;100.00;98685.93;1774307;81;21072;-72
2022/04/10 00:21:18;;;;;;;17.93;7.70;;;;;;;8.44;100.00;98675.34;1740982;81;21072;-71
2022/04/10 00:23:47;;;;;;;16.17;8.70;;;;;;;8.43;100.00;98670.14;1739869;82;21051;-72
2022/04/10 00:26:15;;;;;;;17.47;8.37;;;;;;;8.41;100.00;98660.90;1738233;81;21100;-72
2022/04/10 00:28:44;;;;;;;18.63;9.30;;;;;;;8.42;100.00;98643.73;1740869;81;21044;-71
2022/04/10 00:31:12;;;;;;;19.93;9.50;;;;;;;8.41;100.00;98646.08;1757794;80;21025;-71
2022/04/10 00:33:40;;;;;;;22.93;9.87;;;;;;;8.41;100.00;98637.14;1755981;80;21009;-71
2022/04/10 00:36:07;;;;;;;18.97;8.73;;;;;;;8.40;100.00;98623.38;1756600;80;21055;-72
2022/04/10 00:38:34;;;;;;;19.87;9.80;;;;;;;8.40;100.00;98628.23;1768611;80;21047;-71
2022/04/10 00:41:01;;;;;;;21.17;9.87;;;;;;;8.40;100.00;98618.81;1756893;81;21051;-72
2022/04/10 00:43:34;;;;;;;19.70;9.40;;;;;;;8.41;100.00;98598.09;1745683;81;21040;-72
2022/04/10 00:46:01;;;;;;;23.03;10.53;;;;;;;8.41;100.00;98604.33;1753839;81;21041;-70
2022/04/10 00:48:30;;;;;;;21.40;10.23;;;;;;;8.40;100.00;98599.14;1739222;81;21104;-71
2022/04/10 00:53:43;;;;;;;21.33;8.83;;;;;;;8.39;100.00;98579.42;1742577;81;21048;-72
2022/04/10 00:56:11;;;;;;;15.90;8.67;;;;;;;8.39;100.00;98579.95;1769655;81;21037;-71
2022/04/10 00:58:39;;;;;;;18.53;9.30;;;;;;;8.37;100.00;98563.98;1748305;80;21079;-71
2022/04/10 01:01:07;;;;;;;19.47;9.10;;;;;;;8.36;100.00;98569.88;1766319;80;20989;-72
2022/04/10 01:03:35;;;;;;;20.43;8.87;;;;;;;8.35;100.00;98568.73;1756270;80;21047;-71
2022/04/10 01:06:04;;;;;;;19.43;9.43;;;;;;;8.34;100.00;98557.66;1750157;81;21490;-71
2022/04/10 01:08:32;;;;;;;19.23;9.93;;;;;;;8.32;100.00;98560.53;1750287;82;21108;-71
2022/04/10 01:10:59;;;;;;;17.63;9.27;;;;;;;8.30;100.00;98555.83;1751408;81;21069;-72
2022/04/10 01:13:26;;;;;;;20.83;9.63;;;;;;;8.31;100.00;98559.38;1744510;81;21049;-71
2022/04/10 01:15:54;;;;;;;21.17;9.17;;;;;;;8.32;100.00;98570.45;1748362;81;21053;-71
2022/04/10 01:18:22;;;;;;;20.30;8.87;;;;;;;8.31;100.00;98575.53;1748944;81;20982;-71
2022/04/10 01:20:52;;;;;;;20.07;9.20;;;;;;;8.31;100.00;98576.88;1750395;81;21038;-71
2022/04/10 01:23:21;;;;;;;21.17;10.13;;;;;;;8.30;100.00;98576.55;1750305;81;21101;-71
2022/04/10 01:25:50;;;;;;;22.57;9.47;;;;;;;8.30;100.00;98577.37;1746598;81;21069;-71
2022/04/10 01:28:18;;;;;;;24.47;10.33;;;;;;;8.31;100.00;98570.97;1752705;81;21042;-70
2022/04/10 01:30:47;;;;;;;20.20;10.17;;;;;;;8.30;100.00;98567.13;1723844;81;21086;-71
2022/04/10 01:33:15;;;;;;;18.33;8.80;;;;;;;8.29;100.00;98558.73;1748767;82;21556;-71
2022/04/10 01:35:44;;;;;;;22.50;9.67;;;;;;;8.28;100.00;98559.23;1744582;81;21018;-70
2022/04/10 01:38:13;;;;;;;19.80;8.77;;;;;;;8.28;100.00;98556.54;1749426;81;21002;-71
2022/04/10 01:40:42;;;;;;;22.43;9.90;;;;;;;8.27;100.00;98566.15;1718576;81;21531;-71
2022/04/10 01:43:10;;;;;;;22.43;9.57;;;;;;;8.27;100.00;98556.72;1750245;81;21042;-71
2022/04/10 01:45:38;;;;;;;19.63;9.43;;;;;;;8.25;100.00;98558.30;1749739;81;21046;-70
2022/04/10 01:48:06;;;;;;;23.00;9.57;;;;;;;8.24;100.00;98564.69;1747977;82;21046;-70
2022/04/10 01:50:34;;;;;;;20.03;9.70;;;;;;;8.22;100.00;98565.40;1745100;82;21061;-70
2022/04/10 01:53:04;;;;;;;19.23;9.20;;;;;;;8.20;100.00;98551.79;1748472;81;21006;-70
2022/04/10 01:55:32;;;;;;;18.67;8.27;;;;;;;8.15;100.00;98542.44;1750146;80;21013;-71
2022/04/10 01:57:59;;;;;;;17.27;9.00;;;;;;;8.14;100.00;98533.20;1727410;81;21026;-70
2022/04/10 02:00:28;;;;;;;19.37;9.70;;;;;;;8.11;100.00;98526.36;1747149;81;21085;-70
2022/04/10 02:02:57;;;;;;;19.70;9.83;;;;;;;8.09;100.00;98524.38;1756395;80;21046;-70
2022/04/10 02:05:24;;;;;;;21.73;10.00;;;;;;;8.07;100.00;98516.16;1745360;81;21090;-71
2022/04/10 02:07:51;;;;;;;22.10;9.33;;;;;;;8.04;100.00;98516.53;1760693;80;21078;-71
2022/04/10 02:10:20;;;;;;;19.30;8.67;;;;;;;7.99;100.00;98519.81;1771093;80;20991;-70
2022/04/10 02:12:48;;;;;;;16.43;8.20;;;;;;;7.97;100.00;98525.39;1775170;80;21086;-70
2022/04/10 02:15:17;;;;;;;15.30;8.10;;;;;;;7.95;100.00;98522.06;1774046;80;21078;-70
2022/04/10 02:17:44;;;;;;;19.70;7.77;;;;;;;7.96;100.00;98526.92;1772907;81;21034;-71
2022/04/10 02:20:13;;;;;;;17.13;8.53;;;;;;;7.94;100.00;98520.90;1773895;80;21039;-71
2022/04/10 02:22:40;;;;;;;19.03;8.87;;;;;;;7.92;100.00;98532.38;1777004;80;21042;-70
2022/04/10 02:25:09;;;;;;;20.57;9.30;;;;;;;7.90;100.00;98520.45;1774024;80;21016;-71
2022/04/10 02:27:37;;;;;;;21.77;9.53;;;;;;;7.87;100.00;98526.20;1754587;80;21015;-71
2022/04/10 02:30:06;;;;;;;17.87;8.97;;;;;;;7.85;100.00;98534.16;1777726;80;21042;-71
2022/04/10 02:32:33;;;;;;;22.27;9.50;;;;;;;7.82;100.00;98530.50;1774393;80;20976;-71
2022/04/10 02:35:00;;;;;;;16.47;8.13;;;;;;;7.78;100.00;98520.11;1771051;80;21027;-71
2022/04/10 02:37:29;;;;;;;19.53;8.87;;;;;;;7.77;100.00;98514.42;1770318;80;21543;-71
2022/04/10 02:39:57;;;;;;;20.63;9.70;;;;;;;7.76;100.00;98518.12;1774085;80;21078;-72
2022/04/10 02:42:27;;;;;;;17.13;8.00;;;;;;;7.76;100.00;98520.81;1770114;80;21043;-71
2022/04/10 02:44:55;;;;;;;17.23;8.13;;;;;;;7.74;100.00;98520.70;1774005;81;21042;-71
2022/04/10 02:47:24;;;;;;;19.17;8.10;;;;;;;7.73;100.00;98512.29;1774159;80;21042;-70
2022/04/10 02:49:51;;;;;;;23.10;8.30;;;;;;;7.73;100.00;98513.63;1773357;80;21039;-71
2022/04/10 02:52:19;;;;;;;19.83;9.53;;;;;;;7.73;100.00;98509.59;1772568;80;21079;-71
2022/04/10 02:54:46;;;;;;;18.00;9.10;;;;;;;7.72;100.00;98517.34;1772206;80;21030;-71
2022/04/10 02:57:13;;;;;;;20.27;9.80;;;;;;;7.71;100.00;98516.52;1805551;79;21014;-70
2022/04/10 02:59:42;;;;;;;24.27;10.17;;;;;;;7.69;100.00;98513.70;1805445;79;21022;-70
2022/04/10 03:02:09;;;;;;;21.93;10.33;;;;;;;7.68;100.00;98513.37;1744260;82;21039;-70
2022/04/10 03:04:36;;;;;;;20.73;8.50;;;;;;;7.66;100.00;98503.31;1707269;82;21051;-70
2022/04/10 03:07:05;;;;;;;20.47;9.20;;;;;;;7.65;100.00;98509.70;1689110;85;21184;-71
2022/04/10 03:09:34;;;;;;;18.50;9.13;;;;;;;7.63;100.00;98499.13;1661350;85;21078;-70
2022/04/10 03:12:04;;;;;;;20.80;9.30;;;;;;;7.60;100.00;98495.50;1667879;85;21069;-71
2022/04/10 03:14:32;;;;;;;17.57;8.87;;;;;;;7.58;100.00;98502.41;1686781;85;21570;-71
2022/04/10 03:16:59;;;;;;;20.40;9.20;;;;;;;7.56;100.00;98505.80;1685127;85;21531;-71
2022/04/10 03:19:28;;;;;;;20.80;9.27;;;;;;;7.57;100.00;98504.77;1685228;85;21543;-72
2022/04/10 03:21:55;;;;;;;20.80;9.60;;;;;;;7.59;100.00;98508.09;1685419;85;21067;-72
2022/04/10 03:24:24;;;;;;;18.63;8.30;;;;;;;7.60;100.00;98500.36;1685896;85;21137;-72
2022/04/10 03:26:52;;;;;;;21.43;9.90;;;;;;;7.63;100.00;98509.06;1686271;85;21101;-70
2022/04/10 03:29:19;;;;;;;18.47;9.03;;;;;;;7.64;100.00;98513.44;1685502;85;21097;-72
2022/04/10 03:31:46;;;;;;;20.47;9.03;;;;;;;7.65;100.00;98513.25;1688964;85;21081;-70
2022/04/10 03:34:13;;;;;;;19.13;9.27;;;;;;;7.68;100.00;98514.72;1727595;81;21011;-72
2022/04/10 03:36:42;;;;;;;20.87;9.77;;;;;;;7.72;100.00;98517.34;1750051;82;21537;-70
2022/04/10 03:39:10;;;;;;;21.87;10.23;;;;;;;7.77;100.00;98522.50;1746972;81;21539;-72
2022/04/10 03:41:37;;;;;;;23.57;10.73;;;;;;;7.80;100.00;98524.78;1743655;82;21033;-72
2022/04/10 03:44:05;;;;;;;20.83;10.43;;;;;;;7.80;100.00;98511.33;1747922;82;21029;-71
2022/04/10 03:46:33;;;;;;;21.97;10.13;;;;;;;7.83;100.00;98511.48;1748757;82;21490;-71
2022/04/10 03:49:01;;;;;;;22.10;9.83;;;;;;;7.87;100.00;98526.20;1751261;81;21042;-71
2022/04/10 03:51:29;;;;;;;22.17;10.27;;;;;;;7.92;100.00;98531.03;1751145;81;21026;-72
2022/04/10 03:53:56;;;;;;;22.20;9.77;;;;;;;7.95;100.00;98538.21;1751560;81;21069;-71
2022/04/10 03:56:26;;;;;;;24.17;10.03;;;;;;;7.96;100.00;98532.30;1767863;80;21048;-71
2022/04/10 03:58:53;;;;;;;23.00;10.57;;;;;;;7.99;100.00;98527.89;1783064;80;21002;-72
2022/04/10 04:01:20;;;;;;;26.07;10.20;;;;;;;7.99;100.00;98535.45;1785565;80;21029;-73
2022/04/10 04:03:48;;;;;;;20.27;9.77;;;;;;;8.02;100.00;98539.63;1779055;80;21054;-72
2022/04/10 04:06:16;;;;;;;21.03;10.50;;;;;;;8.04;100.00;98533.54;1773646;80;21066;-71
2022/04/10 04:08:44;;;;;;;20.87;10.30;;;;;;;8.06;100.00;98531.48;1702438;84;21015;-73
2022/04/10 04:11:13;;;;;;;23.03;10.80;;;;;;;8.09;100.00;98528.91;1721008;83;21007;-71
2022/04/10 04:13:40;;;;;;;24.70;10.80;;;;;;;8.11;100.00;98534.92;1776407;80;21038;-71
2022/04/10 04:16:08;;;;;;;22.10;10.33;;;;;;;8.14;100.00;98535.41;1775100;81;21059;-74
2022/04/10 04:18:38;;;;;;;25.10;10.63;;;;;;;8.17;100.00;98537.69;1750297;81;21035;-72
2022/04/10 04:21:08;;;;;;;23.53;10.50;;;;;;;8.18;100.00;98534.51;1708045;84;21094;-71
2022/04/10 04:23:37;;;;;;;21.63;10.30;;;;;;;8.21;100.00;98534.09;1707253;84;21041;-72
2022/04/10 04:26:07;;;;;;;22.37;9.70;;;;;;;8.25;100.00;98554.25;1710611;83;21067;-73
2022/04/10 04:28:36;;;;;;;22.70;10.17;;;;;;;8.28;100.00;98551.16;1710954;83;21066;-73
2022/04/10 04:31:03;;;;;;;24.40;10.47;;;;;;;8.29;100.00;98560.09;1707432;84;21063;-72
2022/04/10 04:33:31;;;;;;;22.33;10.33;;;;;;;8.29;100.00;98559.56;1706297;84;21051;-73
2022/04/10 04:35:59;;;;;;;21.90;9.83;;;;;;;8.29;100.00;98564.95;1733540;83;21051;-73
2022/04/10 04:38:26;;;;;;;23.60;10.37;;;;;;;8.32;100.00;98566.41;1704276;84;21098;-72
2022/04/10 04:40:53;;;;;;;22.47;10.37;;;;;;;8.36;100.00;98569.88;1730717;82;21089;-72
2022/04/10 04:43:21;;;;;;;23.20;10.23;;;;;;;8.42;100.00;98581.77;1703123;83;21091;-72
2022/04/10 04:45:48;;;;;;;25.43;10.60;;;;;;;8.49;100.00;98583.19;1716748;83;21087;-70
2022/04/10 04:48:16;;;;;;;23.20;10.30;;;;;;;8.53;100.00;98591.19;1687196;84;21011;-71
2022/04/10 04:50:47;;;;;;;20.60;9.90;;;;;;;8.57;100.00;98592.50;1709966;84;21055;-72
2022/04/10 04:53:16;;;;;;;23.03;9.13;;;;;;;8.62;100.00;98594.06;1703154;84;21059;-72
2022/04/10 04:55:43;;;;;;;20.67;9.47;;;;;;;8.68;100.00;98581.70;1706055;84;21038;-73
2022/04/10 04:58:12;;;;;;;22.87;9.87;;;;;;;8.71;100.00;98592.07;1693016;83;21061;-71
2022/04/10 05:00:41;;;;;;;23.67;9.80;;;;;;;8.72;100.00;98601.84;1716335;83;21062;-71
2022/04/10 05:03:08;;;;;;;20.97;9.60;;;;;;;8.78;100.00;98586.74;1688394;85;21050;-72
2022/04/10 05:05:36;;;;;;;20.77;9.37;;;;;;;8.85;100.00;98601.10;1674632;85;21079;-72
2022/04/10 05:08:09;;;;;;;22.63;9.30;;;;;;;8.92;100.00;98605.54;1685110;84;21069;-71
2022/04/10 05:10:38;;;;;;;21.90;9.50;;;;;;;9.03;100.00;98597.92;1696464;83;21050;-71
2022/04/10 05:13:08;;;;;;;22.63;9.60;;;;;;;9.15;100.00;98598.22;1700006;83;21055;-73
2022/04/10 05:15:36;;;;;;;17.87;9.17;;;;;;;9.24;100.00;98609.16;1694884;84;21062;-71
2022/04/10 05:18:04;;;;;;;16.90;7.70;;;;;;;9.26;100.00;98612.00;1708875;84;21050;-73
2022/04/10 05:20:33;;;;;;;21.80;8.30;;;;;;;9.31;100.00;98612.73;1650492;85;21501;-71
2022/04/10 05:23:02;;;;;;;19.47;8.27;;;;;;;9.39;100.00;98622.56;1683332;84;21023;-72
2022/04/10 05:25:32;;;;;;;18.23;7.67;;;;;;;9.47;100.00;98628.63;1698354;83;21086;-71
2022/04/10 05:28:00;;;;;;;16.30;8.10;;;;;;;9.56;100.00;98631.15;1692156;83;21102;-71
2022/04/10 05:30:27;;;;;;;21.48;8.55;;;;;;;9.64;100.00;98637.22;1698905;83;21082;-72
2022/04/10 05:32:57;;;;;;;17.50;7.60;;;;;;;9.71;100.00;98644.02;1708019;83;21043;-72
2022/04/10 05:35:24;;;;;;;17.40;7.47;;;;;;;9.74;100.00;98639.57;1704379;83;21499;-72
2022/04/10 05:37:52;;;;;;;15.90;7.20;;;;;;;9.76;100.00;98651.52;1706807;83;21062;-73
2022/04/10 05:40:21;;;;;;;17.40;7.37;;;;;;;9.72;100.00;98653.79;1686759;83;21051;-72
2022/04/10 05:42:48;;;;;;;17.70;7.37;;;;;;;9.68;100.00;98668.69;1710116;83;21066;-71
2022/04/10 05:45:17;;;;;;;14.30;6.75;;;;;;;9.69;100.00;98663.62;1750744;81;21033;-72
2022/04/10 05:47:46;;;;;;;14.15;6.42;;;;;;;9.73;100.00;98666.76;1755515;80;21088;-72
2022/04/10 05:50:14;;;;;;;21.80;7.70;;;;;;;9.76;100.00;98663.14;1752165;82;21562;-73
2022/04/10 05:52:47;;;;;;;15.75;6.35;;;;;;;9.80;100.00;98675.20;1776170;80;21061;-73
2022/04/10 05:55:18;;;;;;;18.82;7.33;;;;;;;9.85;100.00;98679.48;1774943;80;21012;-72
2022/04/10 05:57:45;;;;;;;17.45;7.95;;;;;;;9.92;100.00;98679.53;1748571;82;20995;-72
2022/04/10 06:00:15;;;;;;;14.58;7.33;;;;;;;9.99;100.00;98684.44;1752388;81;21057;-72
2022/04/10 06:02:42;;;;;;;18.10;7.03;;;;;;;10.04;100.00;98686.02;1754978;80;20991;-70
2022/04/10 06:05:11;;;;;;;17.80;7.05;;;;;;;10.12;100.00;98694.99;1776104;80;21042;-73
2022/04/10 06:07:40;;;;;;;17.45;7.28;;;;;;;10.16;100.00;98697.06;1772370;80;21089;-73
2022/04/10 06:10:09;;;;;;;18.15;8.15;;;;;;;10.24;100.00;98702.31;1774988;80;21039;-73
2022/04/10 06:12:37;;;;;;;18.55;7.95;;;;;;;10.33;100.00;98704.87;1766280;80;21499;-72
2022/04/10 06:15:07;;;;;;;17.87;7.80;;;;;;;10.47;100.00;98705.23;1772264;81;21134;-71
2022/04/10 06:17:35;;;;;;;16.42;7.05;;;;;;;10.67;100.00;98701.23;1779147;81;21504;-73
2022/04/10 06:20:05;;;;;;;11.83;6.40;;;;;;;10.90;100.00;98696.80;1741938;82;21047;-71
2022/04/10 06:22:34;;;;;;;10.75;6.62;;;;;;;11.15;100.00;98705.13;1745162;81;20991;-73
2022/04/10 06:25:02;;;;;;;15.80;6.80;;;;;;;11.37;100.00;98709.02;1747949;80;21515;-71
2022/04/10 06:27:29;;;;;;;16.17;7.47;;;;;;;11.51;100.00;98717.93;1766340;81;20990;-71
2022/04/10 06:29:57;;;;;;;17.55;6.53;;;;;;;11.70;100.00;98735.20;1769449;80;21018;-71
2022/04/10 06:32:25;;;;;;;16.62;6.72;;;;;;;11.96;100.00;98730.30;1770071;80;21069;-71
2022/04/10 06:34:53;;;;;;;15.43;6.22;;;;;;;12.27;100.00;98752.63;1770116;80;21046;-71
2022/04/10 06:37:23;;;;;;;13.78;6.20;;;;;;;12.44;100.00;98766.52;1754181;80;21070;-73
2022/04/10 06:39:51;;;;;;;14.53;6.10;;;;;;;12.60;100.00;98776.59;1775751;80;21107;-71
2022/04/10 06:42:20;;;;;;;17.70;6.65;;;;;;;12.67;100.00;98786.88;1774679;80;21031;-71
2022/04/10 06:44:54;;;;;;;12.60;6.30;;;;;;;12.71;100.00;98801.67;1771258;81;21555;-73
2022/04/10 06:47:23;;;;;;;14.53;5.95;;;;;;;12.77;100.00;98808.96;1689388;85;21073;-72
2022/04/10 06:49:53;;;;;;;16.82;6.45;;;;;;;12.77;100.00;98820.34;1682461;85;21030;-73
2022/04/10 06:52:21;;;;;;;17.90;6.10;;;;;;;12.80;100.00;98832.95;1682568;85;21111;-72
2022/04/10 06:54:49;;;;;;;14.58;6.35;;;;;;;12.90;100.00;98829.76;1687688;84;21559;-72
2022/04/10 06:57:17;;;;;;;13.10;6.00;;;;;;;13.12;100.00;98819.44;1687338;84;21021;-72
2022/04/10 06:59:47;;;;;;;13.38;6.30;;;;;;;13.23;100.00;98835.55;1694576;85;21041;-72
2022/04/10 07:02:14;;;;;;;14.60;6.28;;;;;;;13.39;100.00;98837.77;1691623;84;21036;-72
2022/04/10 07:04:45;;;;;;;18.32;6.40;;;;;;;13.52;100.00;98845.53;1646691;87;21059;-72
2022/04/10 07:07:12;;;;;;;15.83;6.15;;;;;;;13.73;100.00;98847.88;1643153;87;21520;-70
2022/04/10 07:09:41;;;;;;;15.32;6.28;;;;;;;13.95;100.00;98855.13;1643032;87;21575;-71
2022/04/10 07:12:10;;;;;;;13.80;5.45;;;;;;;13.98;100.00;98868.79;1643254;87;21615;-72
2022/04/10 07:14:42;;;;;;;12.05;5.80;;;;;;;14.07;100.00;98872.06;1661008;86;21134;-65
2022/04/10 07:17:11;;;;;;;14.78;5.80;;;;;;;14.22;100.00;98885.63;1647588;85;21201;-72
2022/04/10 07:19:39;;;;;;;14.47;6.08;;;;;;;14.40;100.00;98887.54;1644410;87;21551;-71
2022/04/10 07:24:53;;;;;;;12.47;5.67;;;;;;;14.74;100.00;98907.10;1702500;82;21096;-73
2022/04/10 07:27:20;;;;;;;16.70;5.95;;;;;;;14.77;100.00;98909.38;1728891;82;21566;-72
2022/04/10 07:29:57;;;;;;;13.98;5.80;;;;;;;14.91;100.00;98903.77;1712393;83;21035;-71
2022/04/10 07:32:26;;;;;;;13.10;6.12;;;;;;;15.15;100.00;98919.72;1750772;81;21034;-73
2022/04/10 07:34:55;;;;;;;13.62;5.72;;;;;;;15.32;100.00;98914.50;1718618;83;21042;-72
2022/04/10 07:37:34;;;;;;;12.45;5.55;;;;;;;15.47;100.00;98916.27;1589233;89;21078;-72
2022/04/10 07:40:02;;;;;;;15.38;5.53;;;;;;;15.44;100.00;98942.63;1630844;86;21094;-72
2022/04/10 07:42:32;;;;;;;13.03;5.42;;;;;;;15.46;100.00;98945.12;1634730;86;21141;-72
2022/04/10 07:45:00;;;;;;;13.55;5.47;;;;;;;15.46;100.00;98945.12;1650372;87;21067;-72
2022/04/10 07:47:31;;;;;;;14.43;5.92;;;;;;;15.47;100.00;98936.69;1643818;87;21595;-73
2022/04/10 07:50:00;;;;;;;13.28;5.60;;;;;;;15.44;100.00;98941.27;1647033;86;21592;-71
2022/04/10 07:52:29;;;;;;;12.50;5.42;;;;;;;15.38;100.00;98944.89;1646958;87;21063;-72
2022/04/10 07:54:58;;;;;;;13.65;5.10;;;;;;;15.32;100.00;98958.89;1649861;86;21063;-71
2022/04/10 07:57:26;;;;;;;10.68;4.92;;;;;;;15.36;100.00;98951.09;1701599;83;21347;-72
2022/04/10 07:59:55;;;;;;;17.62;5.72;;;;;;;15.69;100.00;98943.85;1678351;83;21009;-73
2022/04/10 08:02:44;;;;;;;12.73;5.42;;;;;;;15.88;100.00;98960.17;1691558;82;21588;-72
2022/04/10 08:05:26;;;;;;;10.80;5.20;;;;;;;16.11;100.00;98964.86;1631265;86;21077;-73
2022/04/10 08:08:14;;;;;;;12.98;5.00;;;;;;;16.29;100.00;98977.06;1593477;88;21051;-71
2022/04/10 08:10:42;;;;;;;10.30;5.15;;;;;;;16.56;100.00;98975.80;1585958;89;21066;-71
2022/04/10 08:13:10;;;;;;;13.90;5.30;;;;;;;16.69;100.00;98982.38;1581151;86;21062;-72
2022/04/10 08:15:38;;;;;;;12.73;5.33;;;;;;;16.67;100.00;98988.61;1669592;84;21065;-73
2022/04/10 08:18:08;;;;;;;15.13;5.20;;;;;;;16.69;100.00;98996.03;1646384;86;21050;-74
2022/04/10 08:20:36;;;;;;;16.15;5.72;;;;;;;16.77;100.00;99003.02;1662389;85;21062;-72
2022/04/10 08:23:17;;;;;;;11.15;4.85;;;;;;;16.73;100.00;99003.20;1658752;85;21040;-70
2022/04/10 08:25:46;;;;;;;12.00;5.12;;;;;;;16.81;100.00;98996.05;1643773;84;22365;-72
2022/04/10 08:28:15;;;;;;;15.03;5.25;;;;;;;17.01;100.00;99000.62;1622994;86;21108;-73
2022/04/10 08:30:42;;;;;;;14.38;5.58;;;;;;;17.18;100.00;99002.09;1613115;86;21085;-73
2022/04/10 08:33:10;;;;;;;14.53;5.75;;;;;;;17.30;100.00;99010.28;1632949;87;21039;-72
2022/04/10 08:35:37;;;;;;;13.00;5.42;;;;;;;17.23;100.00;99003.58;1645840;86;21019;-72
2022/04/10 08:38:05;;;;;;;11.60;5.65;;;;;;;17.29;100.00;99005.88;1632386;87;21118;-73
2022/04/10 08:40:33;;;;;;;13.30;5.42;;;;;;;17.49;100.00;99006.84;1628976;84;21106;-70
2022/04/10 08:43:02;;;;;;;13.72;4.90;;;;;;;17.64;100.00;99010.44;1706613;84;21114;-71
2022/04/10 08:45:29;;;;;;;14.95;5.65;;;;;;;17.93;100.00;98998.17;1680869;83;21026;-72
2022/04/10 08:47:57;;;;;;;14.25;5.25;;;;;;;17.99;100.00;99010.89;1755716;81;21561;-71
2022/04/10 08:50:26;;;;;;;15.75;5.53;;;;;;;18.01;100.00;99014.20;1750970;82;21084;-70
2022/04/10 08:53:02;;;;;;;14.70;5.67;;;;;;;18.12;100.00;99009.75;1755978;81;20986;-72
2022/04/10 08:55:30;;;;;;;16.45;5.45;;;;;;;18.33;100.00;99006.84;1753815;80;21046;-73
2022/04/10 08:57:57;;;;;;;15.43;5.65;;;;;;;18.52;100.00;99006.89;1781989;80;21526;-72
2022/04/10 09:00:26;;;;;;;15.65;6.42;;;;;;;18.65;100.00;99007.64;1782423;80;20990;-71
2022/04/10 09:02:53;;;;;;;14.23;5.37;;;;;;;18.82;100.00;99007.10;1782017;80;21553;-71
2022/04/10 09:05:23;;;;;;;15.60;5.30;;;;;;;19.05;100.00;99008.84;1728265;81;21026;-69
2022/04/10 09:08:11;;;;;;;17.30;5.50;;;;;;;19.08;100.00;99009.69;1751803;82;21029;-71
2022/04/10 09:11:08;;;;;;;14.30;5.42;;;;;;;19.01;100.00;99007.67;1752414;81;21060;-72
2022/04/10 09:13:51;;;;;;;13.75;5.25;;;;;;;18.92;100.00;99016.03;1719183;82;21058;-72
2022/04/10 09:16:21;;;;;;;12.55;5.53;;;;;;;18.89;100.00;99009.16;1758043;80;21089;-72
2022/04/10 09:19:07;;;;;;;11.77;5.13;;;;;;;19.23;100.00;99011.83;1730492;82;21542;-72
2022/04/10 09:21:37;;;;;;;15.55;5.45;;;;;;;19.23;100.00;99011.83;1718268;83;21534;-72
2022/04/10 09:24:07;;;;;;;18.35;5.35;;;;;;;19.35;100.00;99011.70;1744058;80;21062;-74
2022/04/10 09:26:52;;;;;;;13.20;5.20;;;;;;;19.45;100.00;99016.50;1719788;82;21037;-71
2022/04/10 09:29:22;;;;;;;12.95;5.10;;;;;;;19.56;100.00;99020.20;1689916;83;21039;-72
2022/04/10 09:31:50;;;;;;;14.87;5.42;;;;;;;;;;1755106;82;21068;-71
2022/04/10 09:34:19;;;;;;;13.75;5.58;;;;;;;19.93;100.00;99022.31;1754602;81;21088;-72
2022/04/10 09:36:51;;;;;;;13.95;5.25;;;;;;;20.02;100.00;99017.47;1730928;80;21037;-71
2022/04/10 09:39:34;;;;;;;16.42;5.90;;;;;;;19.98;100.00;99020.45;1617339;85;21050;-72
2022/04/10 09:42:09;;;;;;;15.43;5.97;;;;;;;19.87;100.00;99026.92;1680192;85;21065;-73
2022/04/10 09:44:38;;;;;;;18.12;5.78;;;;;;;19.84;100.00;99026.06;1596187;89;21055;-72
2022/04/10 09:47:08;;;;;;;18.25;6.20;;;;;;;19.95;100.00;99014.66;1556619;91;21059;-72
2022/04/10 09:49:40;;;;;;;12.65;5.83;;;;;;;20.03;100.00;99020.51;1603046;89;21129;-72
2022/04/10 09:52:11;;;;;;;11.53;4.90;;;;;;;20.15;100.00;99005.80;1570588;91;21157;-72
2022/04/10 09:54:44;;;;;;;15.23;5.90;;;;;;;20.46;100.00;99025.59;1558174;90;21075;-71
2022/04/10 09:57:14;;;;;;;17.25;5.70;;;;;;;20.75;100.00;99032.73;1534283;92;21764;-71
2022/04/10 09:59:49;;;;;;;16.02;5.60;;;;;;;20.97;100.00;99038.13;1554929;91;21137;-72
2022/04/10 10:02:19;;;;;;;15.58;6.10;;;;;;;20.95;100.00;99032.07;1545748;93;21089;-70
2022/04/10 10:04:49;;;;;;;18.20;6.03;;;;;;;20.94;100.00;99037.27;1567569;91;21110;-71
2022/04/10 10:07:21;;;;;;;15.63;6.22;;;;;;;20.76;100.00;99040.70;1547165;91;21623;-71
2022/04/10 10:09:50;;;;;;;17.32;5.80;;;;;;;20.77;100.00;99039.63;1544056;92;21209;-74
2022/04/10 10:12:17;;;;;;;13.38;5.45;;;;;;;20.90;100.00;99042.47;1542150;93;21106;-74
2022/04/10 10:14:46;;;;;;;14.55;6.20;;;;;;;20.70;100.00;99055.50;1547042;93;21078;-72
2022/04/10 10:17:14;;;;;;;13.62;6.00;;;;;;;20.30;100.00;99060.30;1545670;93;21104;-75
2022/04/10 10:19:43;;;;;;;14.13;5.50;;;;;;;20.24;100.00;99046.25;1547105;93;21136;-71
2022/04/10 10:22:13;;;;;;;18.05;6.35;;;;;;;20.21;100.00;99050.88;1545519;91;21173;-74
2022/04/10 10:24:57;;;;;;;17.30;6.65;;;;;;;20.28;100.00;99049.31;1545529;91;21151;-71
2022/04/10 10:27:36;;;;;;;18.02;5.72;;;;;;;20.13;100.00;99052.70;1545833;93;21059;-73
2022/04/10 10:30:11;;;;;;;15.98;6.25;;;;;;;19.85;100.00;99057.34;1545668;93;21110;-70
2022/04/10 10:32:43;;;;;;;12.35;5.58;;;;;;;19.51;100.00;99050.59;1532270;92;21793;-72
2022/04/10 10:35:30;;;;;;;14.70;5.53;;;;;;;19.40;100.00;99054.80;1527364;93;21093;-71
2022/04/10 10:38:00;;;;;;;15.53;5.30;;;;;;;19.45;100.00;99054.88;1501594;95;21234;-73
2022/04/10 10:40:27;;;;;;;13.90;5.58;;;;;;;19.71;100.00;99055.50;1491096;95;21148;-73
2022/04/10 10:42:58;;;;;;;15.18;5.87;;;;;;;19.64;100.00;99052.67;1496118;95;21124;-72
2022/04/10 10:45:37;;;;;;;13.05;5.20;;;;;;;19.35;100.00;99051.44;1487750;96;21106;-74
2022/04/10 10:48:35;;;;;;;11.75;5.35;;;;;;;19.04;100.00;99063.33;1473819;93;21194;-71
2022/04/10 10:51:13;;;;;;;16.05;5.78;;;;;;;18.70;100.00;99070.70;1528841;93;21046;-70
2022/04/10 10:53:58;;;;;;;14.75;5.97;;;;;;;18.37;100.00;99065.47;1580728;88;21779;-70
2022/04/10 10:56:31;;;;;;;18.10;6.35;;;;;;;18.19;100.00;99061.86;1618315;88;21067;-71
2022/04/10 10:59:39;;;;;;;14.73;5.67;;;;;;;18.00;100.00;99067.23;1611747;88;21089;-66
2022/04/10 11:02:11;;;;;;;13.80;5.45;;;;;;;17.93;100.00;99070.09;1615678;89;21104;-72
2022/04/10 11:04:42;;;;;;;18.52;6.20;;;;;;;17.88;100.00;99059.59;1655927;87;21222;-72
2022/04/10 11:07:21;;;;;;;21.02;6.67;;;;;;;17.90;100.00;99071.13;1656096;87;21046;-71
2022/04/10 11:10:00;;;;;;;13.05;5.58;;;;;;;17.92;100.00;99062.13;1658566;86;21078;-71
2022/04/10 11:12:53;;;;;;;16.02;5.53;;;;;;;17.92;100.00;99054.78;1656228;86;21039;-72
2022/04/10 11:15:22;;;;;;;11.40;5.17;;;;;;;17.96;100.00;99046.38;1751170;81;21035;-69
2022/04/10 11:17:52;;;;;;;16.00;5.58;;;;;;;18.01;100.00;99058.78;1750468;81;21090;-69
2022/04/10 11:20:21;;;;;;;12.45;5.25;;;;;;;18.07;100.00;99050.13;1753612;80;21106;-70
2022/04/10 11:22:53;;;;;;;13.22;5.25;;;;;;;18.13;100.00;99054.64;1780748;80;21106;-71
2022/04/10 11:25:31;;;;;;;12.45;4.67;;;;;;;18.14;100.00;99048.63;1752387;80;21030;-70
2022/04/10 11:30:34;;;;;;;11.90;4.85;;;;;;;18.38;100.00;99051.54;1683987;85;21085;-71
2022/04/10 11:33:04;;;;;;;9.15;4.83;;;;;;;18.50;100.00;99044.64;1684365;85;21076;-70
2022/04/10 11:35:38;;;;;;;14.38;5.67;;;;;;;18.56;100.00;99048.29;1690538;84;21072;-70
2022/04/10 11:38:17;;;;;;;13.35;4.90;;;;;;;18.94;100.00;99039.89;1693262;84;21009;-70
2022/04/10 11:40:52;;;;;;;13.00;4.87;;;;;;;19.40;100.00;99030.13;1689664;85;20998;-71
2022/04/10 11:43:23;;;;;;;11.20;4.90;;;;;;;19.80;100.00;99021.62;1686705;85;21100;-71